Main page
METAR-TAF:

METAR-TAF

Airports :

Samedan Airport

St. Moritz, Switzerland

latitude: 46-32-03N, longitude: 9-53-03E, elevation: 1707 m

Current weather observation

The report was made 32 minutes ago, at 15:20 UTC
Wind 9 kt from the Northwest
Temperature 7°C
Humidity 45%
Pressure 1013 hPa
Visibility 10 km or more
Broken clouds at a height of 6500 ft

METAR: LSZS 281520Z AUTO 31009KT 9999 BKN065 07/M04 Q1013

Time: 16:52 (15:52 UTC)

Forecast

The report was made 1 hour and 27 minutes ago, at 14:25 UTC
Forecast valid from 28 at 15 UTC to 28 at 24 UTC
Wind 7 kt from the West/Northwest
Visibility 10 km or more
Scattered clouds at a height of 5500 ft

TAF: LSZS 281425Z 2815/2824 30007KT 9999 SCT055 TX09/2815Z

Weather observations and forecasts of more than 4000 airports (METAR and TAF reports).

The available stations are represented by yellow and red dots on the map.

Hover mouse over dot to see the name of the station.

Then click to see weather observations and forecasts.

To change the map : click on the green buttons with a black cross to zoom in, on the green button with a dash to zoom out, or on the green arrows for adjacent maps.


METAR-TAF: